sensor_id;sensor_type;location;lat;lon;timestamp;P1;durP1;ratioP1;P2;durP2;ratioP2
54977;SDS011;40873;47.522;19.106;2023-11-22T00:01:21;29.50;;;14.82;;
54977;SDS011;40873;47.522;19.106;2023-11-22T00:03:48;29.67;;;15.00;;
54977;SDS011;40873;47.522;19.106;2023-11-22T00:06:16;26.23;;;14.95;;
54977;SDS011;40873;47.522;19.106;2023-11-22T00:08:47;29.08;;;16.13;;
54977;SDS011;40873;47.522;19.106;2023-11-22T00:11:14;26.02;;;15.23;;
54977;SDS011;40873;47.522;19.106;2023-11-22T00:13:41;27.52;;;15.98;;
54977;SDS011;40873;47.522;19.106;2023-11-22T00:16:08;26.38;;;15.77;;
54977;SDS011;40873;47.522;19.106;2023-11-22T00:18:36;24.70;;;16.17;;
54977;SDS011;40873;47.522;19.106;2023-11-22T00:21:07;25.88;;;15.50;;
54977;SDS011;40873;47.522;19.106;2023-11-22T00:23:34;27.65;;;15.55;;
54977;SDS011;40873;47.522;19.106;2023-11-22T00:26:01;23.60;;;14.50;;
54977;SDS011;40873;47.522;19.106;2023-11-22T00:28:28;23.27;;;14.35;;
54977;SDS011;40873;47.522;19.106;2023-11-22T00:30:55;24.05;;;14.85;;
54977;SDS011;40873;47.522;19.106;2023-11-22T00:33:22;27.10;;;14.32;;
54977;SDS011;40873;47.522;19.106;2023-11-22T00:35:49;24.65;;;14.07;;
54977;SDS011;40873;47.522;19.106;2023-11-22T00:38:17;21.25;;;13.43;;
54977;SDS011;40873;47.522;19.106;2023-11-22T00:40:43;24.83;;;13.95;;
54977;SDS011;40873;47.522;19.106;2023-11-22T00:43:11;22.23;;;13.40;;
54977;SDS011;40873;47.522;19.106;2023-11-22T00:45:38;24.88;;;13.25;;
54977;SDS011;40873;47.522;19.106;2023-11-22T00:48:05;27.70;;;14.55;;
54977;SDS011;40873;47.522;19.106;2023-11-22T00:50:32;22.92;;;13.68;;
54977;SDS011;40873;47.522;19.106;2023-11-22T00:52:59;27.17;;;14.20;;
54977;SDS011;40873;47.522;19.106;2023-11-22T00:55:26;22.00;;;13.45;;
54977;SDS011;40873;47.522;19.106;2023-11-22T00:57:53;25.77;;;13.50;;
54977;SDS011;40873;47.522;19.106;2023-11-22T01:00:22;25.98;;;14.18;;
54977;SDS011;40873;47.522;19.106;2023-11-22T01:02:50;22.67;;;13.80;;
54977;SDS011;40873;47.522;19.106;2023-11-22T01:05:17;24.63;;;13.52;;
54977;SDS011;40873;47.522;19.106;2023-11-22T01:07:44;25.10;;;13.90;;
54977;SDS011;40873;47.522;19.106;2023-11-22T01:10:12;28.20;;;14.63;;
54977;SDS011;40873;47.522;19.106;2023-11-22T01:12:39;26.17;;;13.65;;
54977;SDS011;40873;47.522;19.106;2023-11-22T01:15:06;27.10;;;14.32;;
54977;SDS011;40873;47.522;19.106;2023-11-22T01:17:34;28.38;;;15.45;;
54977;SDS011;40873;47.522;19.106;2023-11-22T01:20:01;24.75;;;13.07;;
54977;SDS011;40873;47.522;19.106;2023-11-22T01:22:30;26.45;;;15.40;;
54977;SDS011;40873;47.522;19.106;2023-11-22T01:24:57;24.20;;;14.05;;
54977;SDS011;40873;47.522;19.106;2023-11-22T01:27:24;28.17;;;14.50;;
54977;SDS011;40873;47.522;19.106;2023-11-22T01:29:51;24.25;;;13.55;;
54977;SDS011;40873;47.522;19.106;2023-11-22T01:32:21;28.27;;;15.45;;
54977;SDS011;40873;47.522;19.106;2023-11-22T01:34:48;25.33;;;14.55;;
54977;SDS011;40873;47.522;19.106;2023-11-22T01:37:15;25.90;;;14.40;;
54977;SDS011;40873;47.522;19.106;2023-11-22T01:39:42;22.58;;;14.05;;
54977;SDS011;40873;47.522;19.106;2023-11-22T01:42:09;22.35;;;13.23;;
54977;SDS011;40873;47.522;19.106;2023-11-22T01:44:36;24.48;;;15.15;;
54977;SDS011;40873;47.522;19.106;2023-11-22T01:47:04;26.48;;;15.02;;
54977;SDS011;40873;47.522;19.106;2023-11-22T01:49:31;23.15;;;13.10;;
54977;SDS011;40873;47.522;19.106;2023-11-22T01:51:59;20.83;;;13.05;;
54977;SDS011;40873;47.522;19.106;2023-11-22T01:54:27;23.98;;;12.45;;
54977;SDS011;40873;47.522;19.106;2023-11-22T01:56:56;21.63;;;13.40;;
54977;SDS011;40873;47.522;19.106;2023-11-22T01:59:24;26.02;;;13.75;;
54977;SDS011;40873;47.522;19.106;2023-11-22T02:01:56;27.48;;;14.15;;
54977;SDS011;40873;47.522;19.106;2023-11-22T02:04:23;26.33;;;13.98;;
54977;SDS011;40873;47.522;19.106;2023-11-22T02:06:50;25.48;;;14.10;;
54977;SDS011;40873;47.522;19.106;2023-11-22T02:09:17;27.35;;;13.52;;
54977;SDS011;40873;47.522;19.106;2023-11-22T02:11:44;25.42;;;13.55;;
54977;SDS011;40873;47.522;19.106;2023-11-22T02:14:14;22.17;;;13.02;;
54977;SDS011;40873;47.522;19.106;2023-11-22T02:16:42;25.77;;;13.65;;
54977;SDS011;40873;47.522;19.106;2023-11-22T02:19:13;26.00;;;14.35;;
54977;SDS011;40873;47.522;19.106;2023-11-22T02:21:43;24.58;;;13.07;;
54977;SDS011;40873;47.522;19.106;2023-11-22T02:24:10;24.88;;;13.18;;
54977;SDS011;40873;47.522;19.106;2023-11-22T02:26:43;23.33;;;12.40;;
54977;SDS011;40873;47.522;19.106;2023-11-22T02:29:11;21.77;;;13.10;;
54977;SDS011;40873;47.522;19.106;2023-11-22T02:31:40;21.70;;;12.27;;
54977;SDS011;40873;47.522;19.106;2023-11-22T02:34:09;20.15;;;11.68;;
54977;SDS011;40873;47.522;19.106;2023-11-22T02:36:36;21.85;;;12.52;;
54977;SDS011;40873;47.522;19.106;2023-11-22T02:39:03;20.85;;;11.88;;
54977;SDS011;40873;47.522;19.106;2023-11-22T02:41:31;22.17;;;12.50;;
54977;SDS011;40873;47.522;19.106;2023-11-22T02:43:58;24.38;;;12.00;;
54977;SDS011;40873;47.522;19.106;2023-11-22T02:46:25;21.50;;;11.63;;
54977;SDS011;40873;47.522;19.106;2023-11-22T02:48:52;19.15;;;11.07;;
54977;SDS011;40873;47.522;19.106;2023-11-22T02:51:22;16.85;;;10.45;;
54977;SDS011;40873;47.522;19.106;2023-11-22T02:53:49;16.45;;;10.55;;
54977;SDS011;40873;47.522;19.106;2023-11-22T02:56:16;17.55;;;9.48;;
54977;SDS011;40873;47.522;19.106;2023-11-22T02:58:44;17.27;;;9.35;;
54977;SDS011;40873;47.522;19.106;2023-11-22T03:01:11;24.65;;;11.38;;
54977;SDS011;40873;47.522;19.106;2023-11-22T03:03:38;24.08;;;10.88;;
54977;SDS011;40873;47.522;19.106;2023-11-22T03:06:08;36.95;;;13.73;;
54977;SDS011;40873;47.522;19.106;2023-11-22T03:08:35;27.00;;;13.65;;
54977;SDS011;40873;47.522;19.106;2023-11-22T03:11:02;21.33;;;11.88;;
54977;SDS011;40873;47.522;19.106;2023-11-22T03:13:29;30.33;;;13.60;;
54977;SDS011;40873;47.522;19.106;2023-11-22T03:15:56;27.27;;;12.93;;
54977;SDS011;40873;47.522;19.106;2023-11-22T03:18:23;25.95;;;11.98;;
54977;SDS011;40873;47.522;19.106;2023-11-22T03:20:50;22.63;;;11.40;;
54977;SDS011;40873;47.522;19.106;2023-11-22T03:23:21;28.00;;;12.55;;
54977;SDS011;40873;47.522;19.106;2023-11-22T03:25:48;29.38;;;12.30;;
54977;SDS011;40873;47.522;19.106;2023-11-22T03:28:15;20.27;;;10.85;;
54977;SDS011;40873;47.522;19.106;2023-11-22T03:30:42;24.02;;;12.73;;
54977;SDS011;40873;47.522;19.106;2023-11-22T03:33:09;19.60;;;9.38;;
54977;SDS011;40873;47.522;19.106;2023-11-22T03:35:37;15.55;;;8.55;;
54977;SDS011;40873;47.522;19.106;2023-11-22T03:38:03;15.45;;;8.90;;
54977;SDS011;40873;47.522;19.106;2023-11-22T03:40:31;13.40;;;7.20;;
54977;SDS011;40873;47.522;19.106;2023-11-22T03:42:57;14.02;;;7.15;;
54977;SDS011;40873;47.522;19.106;2023-11-22T03:45:24;14.48;;;7.25;;
54977;SDS011;40873;47.522;19.106;2023-11-22T03:47:51;12.82;;;6.57;;
54977;SDS011;40873;47.522;19.106;2023-11-22T03:50:19;12.77;;;6.80;;
54977;SDS011;40873;47.522;19.106;2023-11-22T03:52:46;13.45;;;7.25;;
54977;SDS011;40873;47.522;19.106;2023-11-22T03:55:13;15.18;;;7.85;;
54977;SDS011;40873;47.522;19.106;2023-11-22T03:57:40;15.52;;;9.00;;
54977;SDS011;40873;47.522;19.106;2023-11-22T04:00:08;14.13;;;7.50;;
54977;SDS011;40873;47.522;19.106;2023-11-22T04:02:37;18.75;;;8.00;;
54977;SDS011;40873;47.522;19.106;2023-11-22T04:05:04;19.17;;;8.40;;
54977;SDS011;40873;47.522;19.106;2023-11-22T04:07:33;16.52;;;7.93;;
54977;SDS011;40873;47.522;19.106;2023-11-22T04:10:00;16.05;;;8.13;;
54977;SDS011;40873;47.522;19.106;2023-11-22T04:12:27;16.85;;;8.68;;
54977;SDS011;40873;47.522;19.106;2023-11-22T04:14:54;16.63;;;8.38;;
54977;SDS011;40873;47.522;19.106;2023-11-22T04:17:21;16.13;;;7.88;;
54977;SDS011;40873;47.522;19.106;2023-11-22T04:19:49;15.05;;;7.55;;
54977;SDS011;40873;47.522;19.106;2023-11-22T04:22:16;15.40;;;7.75;;
54977;SDS011;40873;47.522;19.106;2023-11-22T04:24:43;16.75;;;7.47;;
54977;SDS011;40873;47.522;19.106;2023-11-22T04:27:12;15.18;;;7.43;;
54977;SDS011;40873;47.522;19.106;2023-11-22T04:29:39;15.25;;;7.47;;
54977;SDS011;40873;47.522;19.106;2023-11-22T04:32:06;21.75;;;8.68;;
54977;SDS011;40873;47.522;19.106;2023-11-22T04:34:33;19.67;;;9.30;;
54977;SDS011;40873;47.522;19.106;2023-11-22T04:37:01;19.20;;;9.02;;
54977;SDS011;40873;47.522;19.106;2023-11-22T04:39:28;17.85;;;8.30;;
54977;SDS011;40873;47.522;19.106;2023-11-22T04:41:55;19.73;;;9.30;;
54977;SDS011;40873;47.522;19.106;2023-11-22T04:44:22;18.52;;;8.38;;
54977;SDS011;40873;47.522;19.106;2023-11-22T04:46:49;17.20;;;8.90;;
54977;SDS011;40873;47.522;19.106;2023-11-22T04:49:16;18.88;;;8.35;;
54977;SDS011;40873;47.522;19.106;2023-11-22T04:51:43;15.73;;;8.05;;
54977;SDS011;40873;47.522;19.106;2023-11-22T04:54:12;16.77;;;7.20;;
54977;SDS011;40873;47.522;19.106;2023-11-22T04:56:39;12.48;;;6.45;;
54977;SDS011;40873;47.522;19.106;2023-11-22T04:59:06;13.38;;;6.82;;
54977;SDS011;40873;47.522;19.106;2023-11-22T05:01:34;14.90;;;6.30;;
54977;SDS011;40873;47.522;19.106;2023-11-22T05:04:02;12.90;;;6.85;;
54977;SDS011;40873;47.522;19.106;2023-11-22T05:06:29;15.32;;;7.35;;
54977;SDS011;40873;47.522;19.106;2023-11-22T05:08:56;16.08;;;8.13;;
54977;SDS011;40873;47.522;19.106;2023-11-22T05:11:23;16.15;;;7.72;;
54977;SDS011;40873;47.522;19.106;2023-11-22T05:13:50;14.32;;;7.47;;
54977;SDS011;40873;47.522;19.106;2023-11-22T05:16:17;17.65;;;7.03;;
54977;SDS011;40873;47.522;19.106;2023-11-22T05:18:45;19.52;;;7.68;;
54977;SDS011;40873;47.522;19.106;2023-11-22T05:21:12;14.00;;;8.05;;
54977;SDS011;40873;47.522;19.106;2023-11-22T05:23:39;16.40;;;8.00;;
54977;SDS011;40873;47.522;19.106;2023-11-22T05:26:09;14.27;;;7.47;;
54977;SDS011;40873;47.522;19.106;2023-11-22T05:28:36;12.88;;;6.50;;
54977;SDS011;40873;47.522;19.106;2023-11-22T05:31:04;13.25;;;7.20;;
54977;SDS011;40873;47.522;19.106;2023-11-22T05:33:31;13.20;;;5.97;;
54977;SDS011;40873;47.522;19.106;2023-11-22T05:35:59;24.73;;;7.03;;
54977;SDS011;40873;47.522;19.106;2023-11-22T05:38:26;21.58;;;7.60;;
54977;SDS011;40873;47.522;19.106;2023-11-22T05:40:53;17.48;;;7.57;;
54977;SDS011;40873;47.522;19.106;2023-11-22T05:43:20;17.33;;;7.70;;
54977;SDS011;40873;47.522;19.106;2023-11-22T05:45:55;12.30;;;6.20;;
54977;SDS011;40873;47.522;19.106;2023-11-22T05:48:22;12.68;;;6.00;;
54977;SDS011;40873;47.522;19.106;2023-11-22T05:50:49;14.88;;;6.10;;
54977;SDS011;40873;47.522;19.106;2023-11-22T05:53:16;12.95;;;6.30;;
54977;SDS011;40873;47.522;19.106;2023-11-22T05:55:47;13.23;;;6.43;;
54977;SDS011;40873;47.522;19.106;2023-11-22T05:58:15;11.25;;;5.53;;
54977;SDS011;40873;47.522;19.106;2023-11-22T06:00:46;13.90;;;6.47;;
54977;SDS011;40873;47.522;19.106;2023-11-22T06:03:14;13.85;;;6.07;;
54977;SDS011;40873;47.522;19.106;2023-11-22T06:05:41;11.55;;;6.20;;
54977;SDS011;40873;47.522;19.106;2023-11-22T06:08:08;13.63;;;6.38;;
54977;SDS011;40873;47.522;19.106;2023-11-22T06:10:38;15.73;;;7.28;;
54977;SDS011;40873;47.522;19.106;2023-11-22T06:13:08;14.50;;;6.55;;
54977;SDS011;40873;47.522;19.106;2023-11-22T06:15:36;16.02;;;6.75;;
54977;SDS011;40873;47.522;19.106;2023-11-22T06:18:04;16.70;;;6.75;;
54977;SDS011;40873;47.522;19.106;2023-11-22T06:20:31;13.73;;;6.93;;
54977;SDS011;40873;47.522;19.106;2023-11-22T06:22:58;19.38;;;7.53;;
54977;SDS011;40873;47.522;19.106;2023-11-22T06:25:28;14.02;;;7.25;;
54977;SDS011;40873;47.522;19.106;2023-11-22T06:27:55;16.30;;;7.03;;
54977;SDS011;40873;47.522;19.106;2023-11-22T06:30:24;17.02;;;8.00;;
54977;SDS011;40873;47.522;19.106;2023-11-22T06:32:52;17.70;;;8.13;;
54977;SDS011;40873;47.522;19.106;2023-11-22T06:35:19;16.90;;;8.25;;
54977;SDS011;40873;47.522;19.106;2023-11-22T06:37:46;16.50;;;6.55;;
54977;SDS011;40873;47.522;19.106;2023-11-22T06:40:13;15.80;;;7.50;;
54977;SDS011;40873;47.522;19.106;2023-11-22T06:42:40;15.35;;;7.75;;
54977;SDS011;40873;47.522;19.106;2023-11-22T06:45:08;13.45;;;6.63;;
54977;SDS011;40873;47.522;19.106;2023-11-22T06:47:36;11.32;;;6.90;;
54977;SDS011;40873;47.522;19.106;2023-11-22T06:50:04;11.90;;;6.68;;
54977;SDS011;40873;47.522;19.106;2023-11-22T06:52:36;10.75;;;6.20;;
54977;SDS011;40873;47.522;19.106;2023-11-22T06:55:08;11.48;;;6.93;;
54977;SDS011;40873;47.522;19.106;2023-11-22T06:57:36;11.15;;;6.35;;
54977;SDS011;40873;47.522;19.106;2023-11-22T07:00:04;12.05;;;6.60;;
54977;SDS011;40873;47.522;19.106;2023-11-22T07:02:32;12.80;;;6.28;;
54977;SDS011;40873;47.522;19.106;2023-11-22T07:04:59;9.70;;;5.85;;
54977;SDS011;40873;47.522;19.106;2023-11-22T07:07:27;11.18;;;6.60;;
54977;SDS011;40873;47.522;19.106;2023-11-22T07:09:53;12.35;;;6.20;;
54977;SDS011;40873;47.522;19.106;2023-11-22T07:12:23;11.45;;;6.78;;
54977;SDS011;40873;47.522;19.106;2023-11-22T07:14:49;13.40;;;6.60;;
54977;SDS011;40873;47.522;19.106;2023-11-22T07:17:17;10.98;;;6.03;;
54977;SDS011;40873;47.522;19.106;2023-11-22T07:19:44;13.50;;;5.65;;
54977;SDS011;40873;47.522;19.106;2023-11-22T07:22:15;12.93;;;6.60;;
54977;SDS011;40873;47.522;19.106;2023-11-22T07:24:43;11.05;;;6.05;;
54977;SDS011;40873;47.522;19.106;2023-11-22T07:27:11;12.50;;;5.90;;
54977;SDS011;40873;47.522;19.106;2023-11-22T07:29:41;12.13;;;6.20;;
54977;SDS011;40873;47.522;19.106;2023-11-22T07:32:09;10.57;;;5.63;;
54977;SDS011;40873;47.522;19.106;2023-11-22T07:34:37;11.18;;;5.85;;
54977;SDS011;40873;47.522;19.106;2023-11-22T07:37:11;12.38;;;6.32;;
54977;SDS011;40873;47.522;19.106;2023-11-22T07:39:39;10.95;;;6.47;;
54977;SDS011;40873;47.522;19.106;2023-11-22T07:42:09;11.43;;;6.40;;
54977;SDS011;40873;47.522;19.106;2023-11-22T07:44:36;15.45;;;6.40;;
54977;SDS011;40873;47.522;19.106;2023-11-22T07:47:06;9.48;;;5.78;;
54977;SDS011;40873;47.522;19.106;2023-11-22T07:49:40;9.45;;;6.20;;
54977;SDS011;40873;47.522;19.106;2023-11-22T07:52:09;8.02;;;5.78;;
54977;SDS011;40873;47.522;19.106;2023-11-22T07:54:40;8.77;;;5.05;;
54977;SDS011;40873;47.522;19.106;2023-11-22T07:57:07;12.05;;;6.07;;
54977;SDS011;40873;47.522;19.106;2023-11-22T07:59:34;8.25;;;5.70;;
54977;SDS011;40873;47.522;19.106;2023-11-22T08:02:02;9.98;;;6.40;;
54977;SDS011;40873;47.522;19.106;2023-11-22T08:04:29;10.32;;;5.55;;
54977;SDS011;40873;47.522;19.106;2023-11-22T08:06:59;10.02;;;5.60;;
54977;SDS011;40873;47.522;19.106;2023-11-22T08:09:27;12.50;;;7.30;;
54977;SDS011;40873;47.522;19.106;2023-11-22T08:12:03;9.50;;;6.38;;
54977;SDS011;40873;47.522;19.106;2023-11-22T08:14:32;7.57;;;5.18;;
54977;SDS011;40873;47.522;19.106;2023-11-22T08:16:59;8.27;;;4.82;;
54977;SDS011;40873;47.522;19.106;2023-11-22T08:19:26;11.30;;;5.43;;
54977;SDS011;40873;47.522;19.106;2023-11-22T08:21:54;9.32;;;5.50;;
54977;SDS011;40873;47.522;19.106;2023-11-22T08:24:21;7.80;;;5.18;;
54977;SDS011;40873;47.522;19.106;2023-11-22T08:26:48;9.23;;;5.28;;
54977;SDS011;40873;47.522;19.106;2023-11-22T08:29:15;8.48;;;5.40;;
54977;SDS011;40873;47.522;19.106;2023-11-22T08:31:43;7.78;;;5.00;;
54977;SDS011;40873;47.522;19.106;2023-11-22T08:34:10;8.32;;;4.88;;
54977;SDS011;40873;47.522;19.106;2023-11-22T08:36:38;8.65;;;5.30;;
54977;SDS011;40873;47.522;19.106;2023-11-22T08:39:05;8.75;;;5.35;;
54977;SDS011;40873;47.522;19.106;2023-11-22T08:41:33;9.23;;;5.55;;
54977;SDS011;40873;47.522;19.106;2023-11-22T08:44:00;10.23;;;5.25;;
54977;SDS011;40873;47.522;19.106;2023-11-22T08:46:27;11.43;;;5.68;;
54977;SDS011;40873;47.522;19.106;2023-11-22T08:48:54;9.57;;;5.78;;
54977;SDS011;40873;47.522;19.106;2023-11-22T08:51:23;8.18;;;5.30;;
54977;SDS011;40873;47.522;19.106;2023-11-22T08:53:50;10.57;;;5.53;;
54977;SDS011;40873;47.522;19.106;2023-11-22T08:56:17;9.10;;;5.38;;
54977;SDS011;40873;47.522;19.106;2023-11-22T08:58:45;8.35;;;5.10;;
54977;SDS011;40873;47.522;19.106;2023-11-22T09:01:12;9.43;;;5.53;;
54977;SDS011;40873;47.522;19.106;2023-11-22T09:03:41;9.63;;;5.90;;
54977;SDS011;40873;47.522;19.106;2023-11-22T09:06:10;9.40;;;5.47;;
54977;SDS011;40873;47.522;19.106;2023-11-22T09:08:37;10.10;;;6.20;;
54977;SDS011;40873;47.522;19.106;2023-11-22T09:11:05;12.60;;;6.68;;
54977;SDS011;40873;47.522;19.106;2023-11-22T09:13:34;13.98;;;6.38;;
54977;SDS011;40873;47.522;19.106;2023-11-22T09:16:02;12.20;;;6.22;;
54977;SDS011;40873;47.522;19.106;2023-11-22T09:18:32;9.35;;;6.10;;
54977;SDS011;40873;47.522;19.106;2023-11-22T09:21:00;9.05;;;6.25;;
54977;SDS011;40873;47.522;19.106;2023-11-22T09:23:27;8.02;;;5.82;;
54977;SDS011;40873;47.522;19.106;2023-11-22T09:25:54;13.23;;;6.60;;
54977;SDS011;40873;47.522;19.106;2023-11-22T09:28:21;10.43;;;5.80;;
54977;SDS011;40873;47.522;19.106;2023-11-22T09:30:48;12.77;;;6.72;;
54977;SDS011;40873;47.522;19.106;2023-11-22T09:33:16;8.10;;;5.25;;
54977;SDS011;40873;47.522;19.106;2023-11-22T09:35:45;9.48;;;5.78;;
54977;SDS011;40873;47.522;19.106;2023-11-22T09:38:14;10.40;;;5.55;;
54977;SDS011;40873;47.522;19.106;2023-11-22T09:40:44;10.25;;;4.72;;
54977;SDS011;40873;47.522;19.106;2023-11-22T09:43:13;9.35;;;5.57;;
54977;SDS011;40873;47.522;19.106;2023-11-22T09:45:48;9.13;;;5.65;;
54977;SDS011;40873;47.522;19.106;2023-11-22T09:48:22;8.30;;;5.28;;
54977;SDS011;40873;47.522;19.106;2023-11-22T09:50:56;9.85;;;5.45;;
54977;SDS011;40873;47.522;19.106;2023-11-22T09:53:53;9.98;;;5.35;;
54977;SDS011;40873;47.522;19.106;2023-11-22T09:56:23;8.15;;;5.00;;
54977;SDS011;40873;47.522;19.106;2023-11-22T09:58:52;7.70;;;4.57;;
54977;SDS011;40873;47.522;19.106;2023-11-22T10:01:23;11.68;;;5.88;;
54977;SDS011;40873;47.522;19.106;2023-11-22T10:03:50;7.88;;;5.18;;
54977;SDS011;40873;47.522;19.106;2023-11-22T10:06:18;7.32;;;4.45;;
54977;SDS011;40873;47.522;19.106;2023-11-22T10:08:45;8.80;;;4.93;;
54977;SDS011;40873;47.522;19.106;2023-11-22T10:11:15;6.57;;;4.43;;
54977;SDS011;40873;47.522;19.106;2023-11-22T10:13:50;7.65;;;4.70;;
54977;SDS011;40873;47.522;19.106;2023-11-22T10:16:18;6.38;;;3.72;;
54977;SDS011;40873;47.522;19.106;2023-11-22T10:18:46;7.00;;;3.88;;
54977;SDS011;40873;47.522;19.106;2023-11-22T10:21:25;6.10;;;3.13;;
54977;SDS011;40873;47.522;19.106;2023-11-22T10:23:55;6.78;;;4.10;;
54977;SDS011;40873;47.522;19.106;2023-11-22T10:26:24;5.70;;;3.55;;
54977;SDS011;40873;47.522;19.106;2023-11-22T10:28:51;4.97;;;3.60;;
54977;SDS011;40873;47.522;19.106;2023-11-22T10:31:20;4.45;;;3.40;;
54977;SDS011;40873;47.522;19.106;2023-11-22T10:33:48;6.43;;;3.50;;
54977;SDS011;40873;47.522;19.106;2023-11-22T10:36:16;8.05;;;4.15;;
54977;SDS011;40873;47.522;19.106;2023-11-22T10:38:47;4.47;;;2.75;;
54977;SDS011;40873;47.522;19.106;2023-11-22T10:41:15;4.50;;;2.70;;
54977;SDS011;40873;47.522;19.106;2023-11-22T10:43:42;7.63;;;3.08;;
54977;SDS011;40873;47.522;19.106;2023-11-22T10:46:12;4.63;;;2.97;;
54977;SDS011;40873;47.522;19.106;2023-11-22T10:48:40;6.43;;;3.15;;
54977;SDS011;40873;47.522;19.106;2023-11-22T10:51:09;5.43;;;3.20;;
54977;SDS011;40873;47.522;19.106;2023-11-22T10:53:47;7.70;;;3.75;;
54977;SDS011;40873;47.522;19.106;2023-11-22T10:56:17;5.55;;;3.28;;
54977;SDS011;40873;47.522;19.106;2023-11-22T10:58:51;7.55;;;3.60;;
54977;SDS011;40873;47.522;19.106;2023-11-22T11:01:23;6.97;;;4.18;;
54977;SDS011;40873;47.522;19.106;2023-11-22T11:04:09;6.10;;;3.70;;
54977;SDS011;40873;47.522;19.106;2023-11-22T11:06:38;7.53;;;4.10;;
54977;SDS011;40873;47.522;19.106;2023-11-22T11:09:09;5.45;;;3.20;;
54977;SDS011;40873;47.522;19.106;2023-11-22T11:11:38;9.63;;;4.35;;
54977;SDS011;40873;47.522;19.106;2023-11-22T11:14:08;8.40;;;4.88;;
54977;SDS011;40873;47.522;19.106;2023-11-22T11:16:38;8.73;;;5.28;;
54977;SDS011;40873;47.522;19.106;2023-11-22T11:19:14;14.13;;;5.75;;
54977;SDS011;40873;47.522;19.106;2023-11-22T11:21:44;10.70;;;5.90;;
54977;SDS011;40873;47.522;19.106;2023-11-22T11:24:14;10.27;;;6.32;;
54977;SDS011;40873;47.522;19.106;2023-11-22T11:26:41;11.75;;;6.18;;
54977;SDS011;40873;47.522;19.106;2023-11-22T11:29:34;11.35;;;5.93;;
54977;SDS011;40873;47.522;19.106;2023-11-22T11:32:10;12.20;;;6.00;;
54977;SDS011;40873;47.522;19.106;2023-11-22T11:37:36;11.95;;;6.10;;
54977;SDS011;40873;47.522;19.106;2023-11-22T11:42:54;13.57;;;7.22;;
54977;SDS011;40873;47.522;19.106;2023-11-22T11:45:21;13.88;;;7.63;;
54977;SDS011;40873;47.522;19.106;2023-11-22T11:47:48;13.60;;;7.68;;
54977;SDS011;40873;47.522;19.106;2023-11-22T11:50:15;11.98;;;6.75;;
54977;SDS011;40873;47.522;19.106;2023-11-22T11:52:45;12.63;;;6.95;;
54977;SDS011;40873;47.522;19.106;2023-11-22T11:55:12;12.55;;;7.57;;
54977;SDS011;40873;47.522;19.106;2023-11-22T11:57:39;12.20;;;7.13;;
54977;SDS011;40873;47.522;19.106;2023-11-22T12:00:08;13.20;;;7.15;;
54977;SDS011;40873;47.522;19.106;2023-11-22T12:02:36;24.25;;;9.02;;
54977;SDS011;40873;47.522;19.106;2023-11-22T12:05:03;14.20;;;6.63;;
54977;SDS011;40873;47.522;19.106;2023-11-22T12:07:36;14.88;;;7.32;;
54977;SDS011;40873;47.522;19.106;2023-11-22T12:10:03;13.95;;;7.07;;
54977;SDS011;40873;47.522;19.106;2023-11-22T12:12:33;13.38;;;7.20;;
54977;SDS011;40873;47.522;19.106;2023-11-22T12:15:01;14.75;;;7.78;;
54977;SDS011;40873;47.522;19.106;2023-11-22T12:17:32;13.95;;;7.00;;
54977;SDS011;40873;47.522;19.106;2023-11-22T12:20:13;14.80;;;7.20;;
54977;SDS011;40873;47.522;19.106;2023-11-22T12:22:48;14.10;;;7.53;;
54977;SDS011;40873;47.522;19.106;2023-11-22T12:25:15;13.95;;;7.95;;
54977;SDS011;40873;47.522;19.106;2023-11-22T12:27:43;16.40;;;7.60;;
54977;SDS011;40873;47.522;19.106;2023-11-22T12:33:05;15.27;;;7.88;;
54977;SDS011;40873;47.522;19.106;2023-11-22T12:35:36;18.17;;;9.15;;
54977;SDS011;40873;47.522;19.106;2023-11-22T12:38:05;16.98;;;8.15;;
54977;SDS011;40873;47.522;19.106;2023-11-22T12:40:33;17.85;;;8.63;;
54977;SDS011;40873;47.522;19.106;2023-11-22T12:43:00;17.42;;;10.50;;
54977;SDS011;40873;47.522;19.106;2023-11-22T12:45:28;21.40;;;9.95;;
54977;SDS011;40873;47.522;19.106;2023-11-22T12:47:56;20.20;;;9.95;;
54977;SDS011;40873;47.522;19.106;2023-11-22T12:50:29;20.42;;;11.07;;
54977;SDS011;40873;47.522;19.106;2023-11-22T12:53:10;21.08;;;10.25;;
54977;SDS011;40873;47.522;19.106;2023-11-22T12:55:47;18.30;;;10.10;;
54977;SDS011;40873;47.522;19.106;2023-11-22T12:58:16;18.85;;;10.13;;
54977;SDS011;40873;47.522;19.106;2023-11-22T13:00:47;16.00;;;9.73;;
54977;SDS011;40873;47.522;19.106;2023-11-22T13:03:16;22.55;;;10.82;;
54977;SDS011;40873;47.522;19.106;2023-11-22T13:05:44;20.13;;;10.60;;
54977;SDS011;40873;47.522;19.106;2023-11-22T13:08:12;25.02;;;10.70;;
54977;SDS011;40873;47.522;19.106;2023-11-22T13:10:41;19.13;;;11.55;;
54977;SDS011;40873;47.522;19.106;2023-11-22T13:13:10;19.75;;;11.27;;
54977;SDS011;40873;47.522;19.106;2023-11-22T13:15:37;24.67;;;12.32;;
54977;SDS011;40873;47.522;19.106;2023-11-22T13:18:04;19.27;;;11.13;;
54977;SDS011;40873;47.522;19.106;2023-11-22T13:20:33;20.17;;;10.95;;
54977;SDS011;40873;47.522;19.106;2023-11-22T13:23:00;20.20;;;11.20;;
54977;SDS011;40873;47.522;19.106;2023-11-22T13:25:28;20.17;;;10.75;;
54977;SDS011;40873;47.522;19.106;2023-11-22T13:27:56;18.77;;;10.18;;
54977;SDS011;40873;47.522;19.106;2023-11-22T13:30:23;22.83;;;11.38;;
54977;SDS011;40873;47.522;19.106;2023-11-22T13:32:52;19.90;;;10.85;;
54977;SDS011;40873;47.522;19.106;2023-11-22T13:35:25;21.23;;;11.57;;
54977;SDS011;40873;47.522;19.106;2023-11-22T13:37:57;21.75;;;11.50;;
54977;SDS011;40873;47.522;19.106;2023-11-22T13:40:25;19.50;;;11.27;;
54977;SDS011;40873;47.522;19.106;2023-11-22T13:42:57;19.15;;;11.13;;
54977;SDS011;40873;47.522;19.106;2023-11-22T13:45:24;23.13;;;12.00;;
54977;SDS011;40873;47.522;19.106;2023-11-22T13:47:53;21.27;;;12.50;;
54977;SDS011;40873;47.522;19.106;2023-11-22T13:50:27;20.42;;;11.98;;
54977;SDS011;40873;47.522;19.106;2023-11-22T13:52:55;23.02;;;12.30;;
54977;SDS011;40873;47.522;19.106;2023-11-22T13:55:23;18.30;;;11.13;;
54977;SDS011;40873;47.522;19.106;2023-11-22T13:57:55;20.17;;;11.10;;
54977;SDS011;40873;47.522;19.106;2023-11-22T14:00:24;29.50;;;11.05;;
54977;SDS011;40873;47.522;19.106;2023-11-22T14:02:58;18.23;;;10.88;;
54977;SDS011;40873;47.522;19.106;2023-11-22T14:05:34;18.67;;;10.30;;
54977;SDS011;40873;47.522;19.106;2023-11-22T14:08:04;22.83;;;9.73;;
54977;SDS011;40873;47.522;19.106;2023-11-22T14:10:35;18.80;;;10.80;;
54977;SDS011;40873;47.522;19.106;2023-11-22T14:13:02;19.90;;;11.43;;
54977;SDS011;40873;47.522;19.106;2023-11-22T14:15:30;19.65;;;10.07;;
54977;SDS011;40873;47.522;19.106;2023-11-22T14:17:58;17.45;;;10.45;;
54977;SDS011;40873;47.522;19.106;2023-11-22T14:20:26;17.90;;;9.40;;
54977;SDS011;40873;47.522;19.106;2023-11-22T14:22:53;19.88;;;10.55;;
54977;SDS011;40873;47.522;19.106;2023-11-22T14:25:20;18.40;;;9.05;;
54977;SDS011;40873;47.522;19.106;2023-11-22T14:27:48;16.63;;;9.57;;
54977;SDS011;40873;47.522;19.106;2023-11-22T14:30:19;16.17;;;8.43;;
54977;SDS011;40873;47.522;19.106;2023-11-22T14:32:51;36.58;;;11.00;;
54977;SDS011;40873;47.522;19.106;2023-11-22T14:35:18;14.02;;;8.43;;